BAW819 EKCH-EGLL
Flight info
| Callsign | BAW819 |
|---|---|
| Flight time | N/A |
| Altitude | 38000 |
| Route | LANGO DCT RAXLU DCT JUIST DCT ABNED L980 LOGAN |
| Aircraft | A320/M-SDE3FGHIRWY/LB1 |
Departure
| Time | 2026-05-07 18:34 |
|---|---|
| Airport | Copenhagen Kastrup Airport (EKCH) |
Arrival
| Time | N/A |
|---|---|
| Airport | London Heathrow Airport (EGLL) |
| Time | Latitude | Longitude | Altitude | Speed | Heading |
|---|---|---|---|---|---|
| 2026-05-07 17:53 | 55.62564 | 12.64513 | 17 ft | 0 kts | 16° |
| 2026-05-07 18:18 | 55.62551 | 12.64507 | 18 ft | 4 kts | 16° |
| 2026-05-07 18:19 | 55.62530 | 12.64495 | 20 ft | 4 kts | 32° |
| 2026-05-07 18:19 | 55.62514 | 12.64463 | 19 ft | 4 kts | 78° |
| 2026-05-07 18:19 | 55.62516 | 12.64421 | 19 ft | 4 kts | 122° |
| 2026-05-07 18:19 | 55.62531 | 12.64382 | 19 ft | 4 kts | 123° |
| 2026-05-07 18:20 | 55.62545 | 12.64342 | 18 ft | 4 kts | 123° |
| 2026-05-07 18:20 | 55.62552 | 12.64325 | 18 ft | 0 kts | 123° |
| 2026-05-07 18:28 | 55.62544 | 12.64345 | -8 ft | 5 kts | 123° |
| 2026-05-07 18:28 | 55.62518 | 12.64416 | 17 ft | 8 kts | 123° |
| 2026-05-07 18:29 | 55.62468 | 12.64484 | 17 ft | 11 kts | 178° |
| 2026-05-07 18:29 | 55.62385 | 12.64448 | 17 ft | 14 kts | 195° |
| 2026-05-07 18:29 | 55.62345 | 12.64429 | 17 ft | 0 kts | 195° |
| 2026-05-07 18:30 | 55.62343 | 12.64428 | 17 ft | 2 kts | 195° |
| 2026-05-07 18:30 | 55.62308 | 12.64412 | 19 ft | 8 kts | 195° |
| 2026-05-07 18:30 | 55.62226 | 12.64368 | 15 ft | 16 kts | 200° |
| 2026-05-07 18:31 | 55.62121 | 12.64281 | 17 ft | 18 kts | 205° |
| 2026-05-07 18:31 | 55.62003 | 12.64182 | 17 ft | 20 kts | 205° |
| 2026-05-07 18:31 | 55.61879 | 12.64080 | 17 ft | 16 kts | 200° |
| 2026-05-07 18:31 | 55.61766 | 12.64078 | 18 ft | 11 kts | 175° |
| 2026-05-07 18:32 | 55.61746 | 12.64081 | 19 ft | 0 kts | 176° |
| 2026-05-07 18:32 | 55.61745 | 12.64081 | 19 ft | 1 kts | 176° |
| 2026-05-07 18:32 | 55.61723 | 12.64084 | 18 ft | 5 kts | 176° |
| 2026-05-07 18:33 | 55.61678 | 12.64089 | 22 ft | 9 kts | 176° |
| 2026-05-07 18:33 | 55.61618 | 12.64066 | 21 ft | 10 kts | 211° |
| 2026-05-07 18:33 | 55.61547 | 12.63955 | 19 ft | 19 kts | 221° |
| 2026-05-07 18:33 | 55.61268 | 12.63522 | 20 ft | 89 kts | 221° |
| 2026-05-07 18:34 | 55.60650 | 12.62566 | 21 ft | 144 kts | 221° |
| 2026-05-07 18:34 | 55.59831 | 12.61298 | 409 ft | 159 kts | 221° |
| 2026-05-07 18:34 | 55.58982 | 12.59990 | 1065 ft | 165 kts | 221° |
| 2026-05-07 18:34 | 55.58091 | 12.58627 | 1557 ft | 177 kts | 222° |
| 2026-05-07 18:35 | 55.57101 | 12.57111 | 1842 ft | 201 kts | 224° |
| 2026-05-07 18:35 | 55.56256 | 12.54992 | 2150 ft | 224 kts | 248° |
| 2026-05-07 18:35 | 55.55535 | 12.52377 | 2609 ft | 249 kts | 242° |
| 2026-05-07 18:35 | 55.54613 | 12.49684 | 3364 ft | 261 kts | 239° |
| 2026-05-07 18:36 | 55.53621 | 12.46976 | 4313 ft | 266 kts | 238° |
| 2026-05-07 18:36 | 55.52601 | 12.44225 | 5285 ft | 270 kts | 238° |
| 2026-05-07 18:36 | 55.51576 | 12.41427 | 6245 ft | 273 kts | 238° |
| 2026-05-07 18:36 | 55.50549 | 12.38583 | 7159 ft | 277 kts | 238° |
| 2026-05-07 18:37 | 55.49523 | 12.35713 | 8006 ft | 282 kts | 238° |
| 2026-05-07 18:37 | 55.48477 | 12.32759 | 8872 ft | 286 kts | 238° |
| 2026-05-07 18:37 | 55.47423 | 12.29773 | 9726 ft | 291 kts | 238° |
| 2026-05-07 18:37 | 55.46344 | 12.26712 | 10489 ft | 298 kts | 238° |
| 2026-05-07 18:38 | 55.45209 | 12.23497 | 10786 ft | 321 kts | 238° |
| 2026-05-07 18:38 | 55.44002 | 12.20077 | 11272 ft | 333 kts | 238° |
| 2026-05-07 18:38 | 55.42769 | 12.16593 | 12001 ft | 337 kts | 238° |
| 2026-05-07 18:38 | 55.41520 | 12.13073 | 12765 ft | 340 kts | 238° |
| 2026-05-07 18:39 | 55.40260 | 12.09528 | 13539 ft | 343 kts | 238° |
| 2026-05-07 18:39 | 55.38989 | 12.05959 | 14279 ft | 346 kts | 238° |
| 2026-05-07 18:39 | 55.37705 | 12.02352 | 14969 ft | 348 kts | 238° |
| 2026-05-07 18:39 | 55.36415 | 11.98736 | 15650 ft | 350 kts | 238° |
| 2026-05-07 18:40 | 55.35115 | 11.95101 | 16314 ft | 353 kts | 238° |
| 2026-05-07 18:40 | 55.33804 | 11.91439 | 16982 ft | 356 kts | 238° |
| 2026-05-07 18:40 | 55.32478 | 11.87738 | 17667 ft | 358 kts | 238° |
| 2026-05-07 18:40 | 55.31147 | 11.84029 | 18331 ft | 361 kts | 238° |
| 2026-05-07 18:41 | 55.29814 | 11.80322 | 18916 ft | 364 kts | 238° |
| 2026-05-07 18:41 | 55.28453 | 11.76546 | 19217 ft | 370 kts | 238° |
| 2026-05-07 18:41 | 55.27084 | 11.72755 | 19149 ft | 366 kts | 238° |
| 2026-05-07 18:41 | 55.25715 | 11.68970 | 19392 ft | 369 kts | 238° |
| 2026-05-07 18:42 | 55.24334 | 11.65161 | 20046 ft | 371 kts | 238° |
| 2026-05-07 18:42 | 55.22938 | 11.61342 | 20624 ft | 374 kts | 238° |
| 2026-05-07 18:42 | 55.21518 | 11.57488 | 21195 ft | 378 kts | 238° |
| 2026-05-07 18:42 | 55.20082 | 11.53612 | 21741 ft | 382 kts | 238° |
| 2026-05-07 18:43 | 55.18624 | 11.49696 | 22295 ft | 385 kts | 238° |
| 2026-05-07 18:43 | 55.17156 | 11.45762 | 22825 ft | 389 kts | 238° |
| 2026-05-07 18:43 | 55.15689 | 11.41831 | 23391 ft | 392 kts | 238° |
| 2026-05-07 18:43 | 55.14191 | 11.37820 | 23898 ft | 396 kts | 238° |
| 2026-05-07 18:44 | 55.12658 | 11.33719 | 24355 ft | 399 kts | 238° |
| 2026-05-07 18:44 | 55.11139 | 11.29647 | 24797 ft | 402 kts | 238° |
| 2026-05-07 18:44 | 55.09624 | 11.25588 | 25217 ft | 405 kts | 238° |
| 2026-05-07 18:44 | 55.08079 | 11.21452 | 25654 ft | 408 kts | 237° |
| 2026-05-07 18:45 | 55.06521 | 11.17287 | 26077 ft | 411 kts | 237° |
| 2026-05-07 18:45 | 55.04945 | 11.13080 | 26495 ft | 414 kts | 237° |
| 2026-05-07 18:45 | 55.03363 | 11.08870 | 26905 ft | 417 kts | 237° |
| 2026-05-07 18:45 | 55.01759 | 11.04624 | 27300 ft | 420 kts | 237° |
| 2026-05-07 18:46 | 55.00142 | 11.00354 | 27654 ft | 424 kts | 237° |
| 2026-05-07 18:46 | 54.98508 | 10.96041 | 28022 ft | 428 kts | 237° |
| 2026-05-07 18:46 | 54.97418 | 10.93169 | 28281 ft | 429 kts | 237° |
| 2026-05-07 18:46 | 54.95772 | 10.88834 | 28688 ft | 431 kts | 237° |
| 2026-05-07 18:47 | 54.93566 | 10.83040 | 29196 ft | 435 kts | 236° |
| 2026-05-07 18:47 | 54.92426 | 10.80088 | 29449 ft | 437 kts | 236° |
| 2026-05-07 18:47 | 54.90154 | 10.74291 | 29936 ft | 440 kts | 236° |
| 2026-05-07 18:47 | 54.88412 | 10.69882 | 30297 ft | 443 kts | 236° |
| 2026-05-07 18:48 | 54.87233 | 10.66905 | 30499 ft | 445 kts | 236° |
| 2026-05-07 18:48 | 54.85486 | 10.62485 | 30811 ft | 448 kts | 236° |
| 2026-05-07 18:48 | 54.83725 | 10.58026 | 31120 ft | 450 kts | 236° |
| 2026-05-07 18:48 | 54.81942 | 10.53518 | 31428 ft | 453 kts | 236° |
| 2026-05-07 18:49 | 54.80177 | 10.49055 | 31839 ft | 453 kts | 235° |
| 2026-05-07 18:49 | 54.78377 | 10.44508 | 32212 ft | 454 kts | 235° |
| 2026-05-07 18:49 | 54.76591 | 10.40000 | 32601 ft | 455 kts | 235° |
| 2026-05-07 18:49 | 54.74793 | 10.35477 | 33013 ft | 455 kts | 235° |
| 2026-05-07 18:50 | 54.72990 | 10.30952 | 33432 ft | 455 kts | 235° |
| 2026-05-07 18:50 | 54.71266 | 10.26449 | 33840 ft | 455 kts | 240° |
| 2026-05-07 18:50 | 54.69723 | 10.21656 | 34239 ft | 455 kts | 241° |
| 2026-05-07 18:50 | 54.68181 | 10.16861 | 34598 ft | 455 kts | 241° |
| 2026-05-07 18:51 | 54.66644 | 10.12099 | 34989 ft | 453 kts | 241° |
| 2026-05-07 18:51 | 54.65106 | 10.07351 | 35399 ft | 451 kts | 241° |
| 2026-05-07 18:51 | 54.63577 | 10.02632 | 35814 ft | 449 kts | 241° |
| 2026-05-07 18:51 | 54.62055 | 9.97935 | 36217 ft | 446 kts | 241° |
| 2026-05-07 18:52 | 54.60546 | 9.93283 | 36612 ft | 444 kts | 240° |
| 2026-05-07 18:52 | 54.59051 | 9.88687 | 36978 ft | 442 kts | 240° |
| 2026-05-07 18:52 | 54.57550 | 9.84078 | 37353 ft | 440 kts | 240° |
| 2026-05-07 18:52 | 54.56058 | 9.79503 | 37759 ft | 437 kts | 240° |
| 2026-05-07 18:53 | 54.54569 | 9.74953 | 38070 ft | 436 kts | 240° |
| 2026-05-07 18:53 | 54.51586 | 9.65873 | 38138 ft | 434 kts | 240° |
| 2026-05-07 18:54 | 54.48625 | 9.56881 | 38141 ft | 433 kts | 240° |
| 2026-05-07 18:54 | 54.45644 | 9.47859 | 38139 ft | 433 kts | 240° |
| 2026-05-07 18:55 | 54.42652 | 9.38866 | 38138 ft | 433 kts | 240° |
| 2026-05-07 18:55 | 54.39666 | 9.29944 | 38128 ft | 433 kts | 240° |
| 2026-05-07 18:56 | 54.36669 | 9.20966 | 38130 ft | 433 kts | 240° |
| 2026-05-07 18:56 | 54.33660 | 9.11990 | 38135 ft | 434 kts | 240° |
| 2026-05-07 18:57 | 54.30641 | 9.03039 | 38145 ft | 434 kts | 239° |
| 2026-05-07 18:57 | 54.27610 | 8.94085 | 38144 ft | 434 kts | 239° |
| 2026-05-07 18:58 | 54.24577 | 8.85139 | 38137 ft | 434 kts | 239° |
| 2026-05-07 18:58 | 54.21560 | 8.76267 | 38138 ft | 435 kts | 239° |
| 2026-05-07 18:59 | 54.18511 | 8.67348 | 38137 ft | 435 kts | 239° |
| 2026-05-07 18:59 | 54.15455 | 8.58452 | 38146 ft | 434 kts | 239° |
| 2026-05-07 19:00 | 54.12396 | 8.49564 | 38151 ft | 434 kts | 239° |
| 2026-05-07 19:00 | 54.09334 | 8.40704 | 38163 ft | 433 kts | 239° |
| 2026-05-07 19:01 | 54.06275 | 8.31875 | 38160 ft | 432 kts | 239° |
| 2026-05-07 19:01 | 54.03211 | 8.23080 | 38154 ft | 432 kts | 239° |
| 2026-05-07 19:02 | 54.00143 | 8.14312 | 38151 ft | 432 kts | 238° |
| 2026-05-07 19:02 | 53.97063 | 8.05548 | 38143 ft | 432 kts | 238° |
| 2026-05-07 19:03 | 53.94008 | 7.96849 | 38149 ft | 431 kts | 238° |
| 2026-05-07 19:03 | 53.90940 | 7.88118 | 38156 ft | 430 kts | 238° |
| 2026-05-07 19:04 | 53.87858 | 7.79424 | 38149 ft | 431 kts | 238° |
| 2026-05-07 19:04 | 53.84750 | 7.70707 | 38137 ft | 431 kts | 238° |
| 2026-05-07 19:05 | 53.81645 | 7.62017 | 38133 ft | 432 kts | 238° |
| 2026-05-07 19:05 | 53.78529 | 7.53320 | 38132 ft | 432 kts | 238° |
| 2026-05-07 19:06 | 53.75436 | 7.44690 | 38141 ft | 432 kts | 238° |
| 2026-05-07 19:06 | 53.70747 | 7.31695 | 38148 ft | 431 kts | 238° |
| 2026-05-07 19:07 | 53.67612 | 7.23048 | 38154 ft | 431 kts | 238° |
| 2026-05-07 19:07 | 53.64480 | 7.14441 | 38153 ft | 431 kts | 238° |
| 2026-05-07 19:08 | 53.61339 | 7.05842 | 38145 ft | 431 kts | 238° |
| 2026-05-07 19:08 | 53.58191 | 6.97260 | 38144 ft | 430 kts | 238° |
| 2026-05-07 19:09 | 53.55003 | 6.88809 | 38144 ft | 430 kts | 235° |
| 2026-05-07 19:09 | 53.51547 | 6.80609 | 38145 ft | 430 kts | 233° |
| 2026-05-07 19:10 | 53.48000 | 6.72525 | 38144 ft | 430 kts | 233° |
| 2026-05-07 19:10 | 53.44479 | 6.64409 | 38150 ft | 429 kts | 234° |
| 2026-05-07 19:11 | 53.40992 | 6.56281 | 38144 ft | 429 kts | 234° |
| 2026-05-07 19:11 | 53.37517 | 6.48176 | 38148 ft | 429 kts | 234° |
| 2026-05-07 19:12 | 53.34011 | 6.40072 | 38141 ft | 429 kts | 233° |
| 2026-05-07 19:12 | 53.30501 | 6.31990 | 38137 ft | 429 kts | 233° |
| 2026-05-07 19:13 | 53.26998 | 6.23938 | 38134 ft | 429 kts | 233° |
| 2026-05-07 19:13 | 53.23504 | 6.15928 | 38132 ft | 429 kts | 233° |
| 2026-05-07 19:14 | 53.19977 | 6.07882 | 38132 ft | 429 kts | 233° |
| 2026-05-07 19:14 | 53.16442 | 5.99833 | 38127 ft | 429 kts | 233° |
| 2026-05-07 19:15 | 53.12914 | 5.91812 | 38125 ft | 429 kts | 233° |
| 2026-05-07 19:15 | 53.09371 | 5.83796 | 38120 ft | 429 kts | 233° |
| 2026-05-07 19:16 | 53.05826 | 5.75805 | 38128 ft | 429 kts | 233° |
| 2026-05-07 19:16 | 53.02304 | 5.67899 | 38129 ft | 428 kts | 233° |
| 2026-05-07 19:17 | 52.98770 | 5.59976 | 38125 ft | 428 kts | 233° |
| 2026-05-07 19:17 | 52.95209 | 5.52017 | 38126 ft | 428 kts | 233° |
| 2026-05-07 19:18 | 52.91667 | 5.44127 | 38123 ft | 428 kts | 233° |
| 2026-05-07 19:18 | 52.88103 | 5.36214 | 38121 ft | 428 kts | 233° |
| 2026-05-07 19:19 | 52.84544 | 5.28331 | 38122 ft | 427 kts | 233° |
| 2026-05-07 19:19 | 52.81003 | 5.20512 | 38120 ft | 427 kts | 233° |
| 2026-05-07 19:20 | 52.77433 | 5.12666 | 38118 ft | 427 kts | 233° |
| 2026-05-07 19:20 | 52.73861 | 5.04848 | 38115 ft | 427 kts | 233° |
| 2026-05-07 19:21 | 52.70270 | 4.97034 | 38120 ft | 427 kts | 232° |
| 2026-05-07 19:21 | 52.67007 | 4.89674 | 38115 ft | 427 kts | 233° |
| 2026-05-07 19:22 | 52.63504 | 4.81770 | 38095 ft | 426 kts | 231° |
| 2026-05-07 19:22 | 52.59547 | 4.74510 | 38078 ft | 426 kts | 231° |
| 2026-05-07 19:23 | 52.56038 | 4.66727 | 38093 ft | 426 kts | 235° |
| 2026-05-07 19:23 | 52.52611 | 4.58772 | 38101 ft | 426 kts | 234° |
| 2026-05-07 19:24 | 52.49060 | 4.50982 | 38104 ft | 426 kts | 232° |
| 2026-05-07 19:24 | 52.45428 | 4.43280 | 38104 ft | 426 kts | 232° |
| 2026-05-07 19:25 | 52.41797 | 4.35597 | 38102 ft | 426 kts | 232° |
| 2026-05-07 19:25 | 52.38198 | 4.27952 | 38108 ft | 426 kts | 232° |
| 2026-05-07 19:26 | 52.34635 | 4.20390 | 38113 ft | 426 kts | 232° |
| 2026-05-07 19:26 | 52.31011 | 4.12731 | 38116 ft | 426 kts | 232° |
| 2026-05-07 19:27 | 52.27379 | 4.05069 | 38116 ft | 426 kts | 232° |
| 2026-05-07 19:27 | 52.23750 | 3.97434 | 38116 ft | 426 kts | 232° |
| 2026-05-07 19:28 | 52.20112 | 3.89805 | 38117 ft | 426 kts | 232° |
| 2026-05-07 19:28 | 52.16497 | 3.82232 | 38120 ft | 425 kts | 232° |
| 2026-05-07 19:29 | 52.12850 | 3.74646 | 38117 ft | 425 kts | 232° |
| 2026-05-07 19:29 | 52.09196 | 3.67066 | 38121 ft | 425 kts | 232° |
| 2026-05-07 19:30 | 52.05539 | 3.59488 | 38121 ft | 425 kts | 232° |
| 2026-05-07 19:30 | 52.01934 | 3.52045 | 38124 ft | 425 kts | 232° |
| 2026-05-07 19:31 | 51.98269 | 3.44503 | 38112 ft | 425 kts | 232° |
| 2026-05-07 19:31 | 51.94605 | 3.36992 | 38123 ft | 424 kts | 232° |
| 2026-05-07 19:32 | 51.90971 | 3.29545 | 38129 ft | 424 kts | 232° |
| 2026-05-07 19:32 | 51.87313 | 3.21982 | 38127 ft | 424 kts | 236° |
| 2026-05-07 19:33 | 51.84870 | 3.13449 | 38117 ft | 423 kts | 255° |
| 2026-05-07 19:33 | 51.84069 | 3.04028 | 38110 ft | 424 kts | 263° |
| 2026-05-07 19:34 | 51.83456 | 2.94575 | 38111 ft | 424 kts | 263° |
| 2026-05-07 19:34 | 51.83141 | 2.89834 | 37947 ft | 425 kts | 263° |
| 2026-05-07 19:34 | 51.82823 | 2.85097 | 37658 ft | 423 kts | 263° |
| 2026-05-07 19:35 | 51.82503 | 2.80364 | 37138 ft | 422 kts | 263° |
| 2026-05-07 19:35 | 51.82184 | 2.75650 | 36500 ft | 423 kts | 263° |
| 2026-05-07 19:35 | 51.81864 | 2.70941 | 35984 ft | 421 kts | 263° |
| 2026-05-07 19:35 | 51.81547 | 2.66289 | 35558 ft | 417 kts | 263° |
| 2026-05-07 19:36 | 51.81230 | 2.61648 | 35104 ft | 414 kts | 263° |
| 2026-05-07 19:36 | 51.80915 | 2.57049 | 34635 ft | 411 kts | 263° |
| 2026-05-07 19:36 | 51.80600 | 2.52473 | 34170 ft | 409 kts | 263° |
| 2026-05-07 19:36 | 51.80289 | 2.47976 | 33657 ft | 406 kts | 263° |
| 2026-05-07 19:37 | 51.79972 | 2.43468 | 33197 ft | 401 kts | 263° |
| 2026-05-07 19:37 | 51.79656 | 2.39013 | 32737 ft | 397 kts | 263° |
| 2026-05-07 19:37 | 51.79447 | 2.36089 | 32432 ft | 394 kts | 263° |
| 2026-05-07 19:37 | 51.79130 | 2.31697 | 31980 ft | 390 kts | 263° |
| 2026-05-07 19:38 | 51.78816 | 2.27376 | 31537 ft | 386 kts | 263° |
| 2026-05-07 19:38 | 51.78505 | 2.23086 | 31100 ft | 382 kts | 263° |
| 2026-05-07 19:38 | 51.78213 | 2.18868 | 30683 ft | 378 kts | 264° |
| 2026-05-07 19:38 | 51.77958 | 2.14646 | 30269 ft | 375 kts | 264° |
| 2026-05-07 19:39 | 51.77725 | 2.10483 | 29815 ft | 372 kts | 264° |
| 2026-05-07 19:39 | 51.77498 | 2.06336 | 29425 ft | 367 kts | 264° |
| 2026-05-07 19:39 | 51.77272 | 2.02254 | 29031 ft | 363 kts | 264° |
| 2026-05-07 19:39 | 51.77045 | 1.98256 | 28663 ft | 360 kts | 264° |
| 2026-05-07 19:40 | 51.76810 | 1.94248 | 28296 ft | 357 kts | 264° |
| 2026-05-07 19:40 | 51.76571 | 1.90278 | 27926 ft | 355 kts | 264° |
| 2026-05-07 19:40 | 51.76330 | 1.86323 | 27552 ft | 352 kts | 264° |
| 2026-05-07 19:40 | 51.76090 | 1.82420 | 27183 ft | 349 kts | 264° |
| 2026-05-07 19:41 | 51.75864 | 1.78780 | 26841 ft | 347 kts | 264° |
| 2026-05-07 19:41 | 51.75620 | 1.74918 | 26463 ft | 344 kts | 264° |
| 2026-05-07 19:41 | 51.75376 | 1.71085 | 26092 ft | 341 kts | 263° |
| 2026-05-07 19:41 | 51.75134 | 1.67288 | 25710 ft | 339 kts | 263° |
| 2026-05-07 19:42 | 51.74896 | 1.63517 | 25329 ft | 336 kts | 263° |
| 2026-05-07 19:42 | 51.74663 | 1.59819 | 24933 ft | 335 kts | 264° |
| 2026-05-07 19:42 | 51.74426 | 1.56053 | 24401 ft | 338 kts | 264° |
| 2026-05-07 19:42 | 51.74193 | 1.52346 | 23891 ft | 340 kts | 263° |
| 2026-05-07 19:43 | 51.73951 | 1.48536 | 23340 ft | 342 kts | 263° |
| 2026-05-07 19:43 | 51.73708 | 1.44718 | 22819 ft | 341 kts | 263° |
| 2026-05-07 19:43 | 51.73464 | 1.40913 | 22302 ft | 341 kts | 263° |
| 2026-05-07 19:43 | 51.73217 | 1.37126 | 21793 ft | 340 kts | 263° |
| 2026-05-07 19:44 | 51.72968 | 1.33326 | 21274 ft | 340 kts | 263° |
| 2026-05-07 19:44 | 51.72719 | 1.29535 | 20781 ft | 340 kts | 263° |
| 2026-05-07 19:44 | 51.72471 | 1.25787 | 20271 ft | 339 kts | 263° |
| 2026-05-07 19:44 | 51.72218 | 1.21992 | 19762 ft | 339 kts | 263° |
| 2026-05-07 19:45 | 51.71965 | 1.18207 | 19256 ft | 339 kts | 263° |
| 2026-05-07 19:45 | 51.71711 | 1.14421 | 18735 ft | 340 kts | 263° |
| 2026-05-07 19:45 | 51.71456 | 1.10639 | 18219 ft | 340 kts | 263° |
| 2026-05-07 19:45 | 51.71199 | 1.06853 | 17674 ft | 339 kts | 263° |
| 2026-05-07 19:46 | 51.70940 | 1.03117 | 17185 ft | 337 kts | 262° |
| 2026-05-07 19:46 | 51.70683 | 0.99376 | 16674 ft | 334 kts | 262° |
| 2026-05-07 19:46 | 51.70434 | 0.95720 | 16202 ft | 320 kts | 262° |
| 2026-05-07 19:46 | 51.70197 | 0.92247 | 16067 ft | 308 kts | 262° |
| 2026-05-07 19:47 | 51.69962 | 0.88850 | 16087 ft | 309 kts | 262° |
| 2026-05-07 19:47 | 51.69726 | 0.85450 | 16020 ft | 308 kts | 262° |
| 2026-05-07 19:47 | 51.69483 | 0.82003 | 15016 ft | 315 kts | 262° |
| 2026-05-07 19:47 | 51.69230 | 0.78450 | 14057 ft | 320 kts | 262° |
| 2026-05-07 19:48 | 51.68981 | 0.74957 | 13586 ft | 307 kts | 262° |
| 2026-05-07 19:48 | 51.68743 | 0.71611 | 13179 ft | 300 kts | 262° |
| 2026-05-07 19:48 | 51.68508 | 0.68294 | 12776 ft | 298 kts | 262° |
| 2026-05-07 19:48 | 51.68273 | 0.64977 | 12365 ft | 295 kts | 262° |
| 2026-05-07 19:49 | 51.68043 | 0.61744 | 11973 ft | 293 kts | 262° |
| 2026-05-07 19:49 | 51.67808 | 0.58484 | 11573 ft | 291 kts | 262° |
| 2026-05-07 19:49 | 51.67574 | 0.55281 | 11179 ft | 289 kts | 261° |
| 2026-05-07 19:49 | 51.67340 | 0.52078 | 10789 ft | 286 kts | 262° |
| 2026-05-07 19:50 | 51.67110 | 0.48903 | 10406 ft | 284 kts | 262° |
| 2026-05-07 19:50 | 51.66884 | 0.45759 | 10018 ft | 281 kts | 262° |
| 2026-05-07 19:50 | 51.66660 | 0.42647 | 9605 ft | 279 kts | 262° |
| 2026-05-07 19:50 | 51.66434 | 0.39546 | 9225 ft | 278 kts | 262° |
| 2026-05-07 19:51 | 51.66207 | 0.36487 | 8842 ft | 275 kts | 262° |
| 2026-05-07 19:51 | 51.65978 | 0.33442 | 8472 ft | 273 kts | 262° |
| 2026-05-07 19:51 | 51.65749 | 0.30406 | 8133 ft | 271 kts | 262° |
| 2026-05-07 19:51 | 51.65524 | 0.27386 | 8079 ft | 272 kts | 262° |
| 2026-05-07 19:52 | 51.65297 | 0.24382 | 8082 ft | 275 kts | 262° |
| 2026-05-07 19:52 | 51.65063 | 0.21301 | 8082 ft | 274 kts | 262° |
| 2026-05-07 19:52 | 51.64828 | 0.18241 | 8082 ft | 275 kts | 262° |
| 2026-05-07 19:52 | 51.64594 | 0.15185 | 8084 ft | 275 kts | 262° |
| 2026-05-07 19:53 | 51.64451 | 0.12167 | 8082 ft | 275 kts | 266° |
| 2026-05-07 19:53 | 51.64352 | 0.09090 | 8082 ft | 275 kts | 266° |
| 2026-05-07 19:53 | 51.64264 | 0.06048 | 8082 ft | 274 kts | 266° |
| 2026-05-07 19:53 | 51.64180 | 0.02979 | 8082 ft | 274 kts | 266° |
| 2026-05-07 19:54 | 51.64089 | -0.00092 | 8087 ft | 275 kts | 266° |
| 2026-05-07 19:54 | 51.63994 | -0.03156 | 8058 ft | 274 kts | 266° |
| 2026-05-07 19:54 | 51.63891 | -0.06188 | 7701 ft | 269 kts | 266° |
| 2026-05-07 19:54 | 51.63785 | -0.09196 | 7175 ft | 266 kts | 266° |
| 2026-05-07 19:55 | 51.63677 | -0.12195 | 7057 ft | 269 kts | 266° |
| 2026-05-07 19:55 | 51.63567 | -0.15198 | 7053 ft | 270 kts | 266° |
| 2026-05-07 19:55 | 51.63455 | -0.18215 | 7054 ft | 270 kts | 266° |
| 2026-05-07 19:55 | 51.63344 | -0.21205 | 7056 ft | 270 kts | 266° |
| 2026-05-07 19:56 | 51.63232 | -0.24203 | 7054 ft | 270 kts | 266° |
| 2026-05-07 19:56 | 51.63120 | -0.27198 | 7048 ft | 255 kts | 266° |
| 2026-05-07 19:56 | 51.63020 | -0.29877 | 7053 ft | 241 kts | 266° |
| 2026-05-07 19:56 | 51.62919 | -0.32563 | 7056 ft | 239 kts | 266° |
| 2026-05-07 19:57 | 51.62817 | -0.35240 | 7056 ft | 239 kts | 266° |
| 2026-05-07 19:57 | 51.62716 | -0.37902 | 7057 ft | 238 kts | 266° |
| 2026-05-07 19:57 | 51.62617 | -0.40564 | 7056 ft | 238 kts | 266° |
| 2026-05-07 19:57 | 51.62516 | -0.43226 | 7057 ft | 238 kts | 265° |
| 2026-05-07 19:58 | 51.62201 | -0.45827 | 6976 ft | 236 kts | 253° |
| 2026-05-07 19:58 | 51.61709 | -0.48305 | 6677 ft | 235 kts | 251° |
| 2026-05-07 19:58 | 51.61190 | -0.50779 | 6352 ft | 236 kts | 251° |
| 2026-05-07 19:58 | 51.60660 | -0.53273 | 6028 ft | 235 kts | 251° |
| 2026-05-07 19:59 | 51.60132 | -0.55767 | 5690 ft | 236 kts | 251° |
| 2026-05-07 19:59 | 51.59605 | -0.58276 | 5361 ft | 235 kts | 251° |
| 2026-05-07 19:59 | 51.59088 | -0.60760 | 5053 ft | 235 kts | 251° |
| 2026-05-07 19:59 | 51.58571 | -0.63255 | 4736 ft | 235 kts | 251° |
| 2026-05-07 20:00 | 51.58061 | -0.65749 | 4403 ft | 235 kts | 251° |
| 2026-05-07 20:00 | 51.57509 | -0.68219 | 4081 ft | 233 kts | 244° |
| 2026-05-07 20:00 | 51.56801 | -0.70509 | 3998 ft | 233 kts | 242° |
| 2026-05-07 20:00 | 51.56046 | -0.72804 | 4013 ft | 236 kts | 241° |
| 2026-05-07 20:01 | 51.55273 | -0.75123 | 4015 ft | 236 kts | 241° |
| 2026-05-07 20:01 | 51.54444 | -0.77404 | 4024 ft | 236 kts | 232° |
| 2026-05-07 20:01 | 51.53255 | -0.79185 | 4024 ft | 233 kts | 211° |
| 2026-05-07 20:01 | 51.51772 | -0.80076 | 4027 ft | 226 kts | 187° |
| 2026-05-07 20:02 | 51.50250 | -0.80300 | 4021 ft | 211 kts | 181° |
| 2026-05-07 20:02 | 51.48805 | -0.80424 | 4024 ft | 207 kts | 181° |